sensor_id;sensor_type;location;lat;lon;timestamp;P1;durP1;ratioP1;P2;durP2;ratioP2
20069;SDS011;10195;50.868;4.382;2024-01-16T00:01:07;17.83;;;4.10;;
20069;SDS011;10195;50.868;4.382;2024-01-16T00:03:33;13.17;;;4.27;;
20069;SDS011;10195;50.868;4.382;2024-01-16T00:06:00;9.97;;;3.80;;
20069;SDS011;10195;50.868;4.382;2024-01-16T00:08:26;15.60;;;5.23;;
20069;SDS011;10195;50.868;4.382;2024-01-16T00:10:53;14.50;;;4.03;;
20069;SDS011;10195;50.868;4.382;2024-01-16T00:13:18;13.73;;;4.30;;
20069;SDS011;10195;50.868;4.382;2024-01-16T00:15:44;11.97;;;4.10;;
20069;SDS011;10195;50.868;4.382;2024-01-16T00:18:10;5.50;;;2.70;;
20069;SDS011;10195;50.868;4.382;2024-01-16T00:20:35;20.87;;;4.00;;
20069;SDS011;10195;50.868;4.382;2024-01-16T00:23:01;8.70;;;3.90;;
20069;SDS011;10195;50.868;4.382;2024-01-16T00:25:27;11.23;;;3.87;;
20069;SDS011;10195;50.868;4.382;2024-01-16T00:27:54;10.50;;;3.77;;
20069;SDS011;10195;50.868;4.382;2024-01-16T00:30:20;12.23;;;4.30;;
20069;SDS011;10195;50.868;4.382;2024-01-16T00:32:45;3.70;;;1.90;;
20069;SDS011;10195;50.868;4.382;2024-01-16T00:35:11;15.17;;;4.27;;
20069;SDS011;10195;50.868;4.382;2024-01-16T00:37:37;18.00;;;4.27;;
20069;SDS011;10195;50.868;4.382;2024-01-16T00:40:03;8.03;;;4.13;;
20069;SDS011;10195;50.868;4.382;2024-01-16T00:42:30;12.33;;;4.30;;
20069;SDS011;10195;50.868;4.382;2024-01-16T00:44:57;15.27;;;4.80;;
20069;SDS011;10195;50.868;4.382;2024-01-16T00:47:23;11.30;;;4.57;;
20069;SDS011;10195;50.868;4.382;2024-01-16T00:49:49;10.27;;;4.80;;
20069;SDS011;10195;50.868;4.382;2024-01-16T00:52:15;18.57;;;4.40;;
20069;SDS011;10195;50.868;4.382;2024-01-16T00:54:41;24.07;;;6.40;;
20069;SDS011;10195;50.868;4.382;2024-01-16T00:57:08;14.43;;;5.23;;
20069;SDS011;10195;50.868;4.382;2024-01-16T00:59:34;15.33;;;5.57;;
20069;SDS011;10195;50.868;4.382;2024-01-16T01:02:00;14.57;;;4.13;;
20069;SDS011;10195;50.868;4.382;2024-01-16T01:04:25;9.37;;;4.00;;
20069;SDS011;10195;50.868;4.382;2024-01-16T01:06:51;12.97;;;4.73;;
20069;SDS011;10195;50.868;4.382;2024-01-16T01:09:17;15.80;;;4.77;;
20069;SDS011;10195;50.868;4.382;2024-01-16T01:11:43;13.73;;;4.60;;
20069;SDS011;10195;50.868;4.382;2024-01-16T01:14:08;14.03;;;4.37;;
20069;SDS011;10195;50.868;4.382;2024-01-16T01:16:34;14.47;;;4.37;;
20069;SDS011;10195;50.868;4.382;2024-01-16T01:19:00;10.93;;;4.10;;
20069;SDS011;10195;50.868;4.382;2024-01-16T01:21:26;20.77;;;5.33;;
20069;SDS011;10195;50.868;4.382;2024-01-16T01:23:52;9.80;;;5.00;;
20069;SDS011;10195;50.868;4.382;2024-01-16T01:26:17;9.30;;;4.57;;
20069;SDS011;10195;50.868;4.382;2024-01-16T01:28:44;15.33;;;4.57;;
20069;SDS011;10195;50.868;4.382;2024-01-16T01:31:13;17.13;;;6.17;;
20069;SDS011;10195;50.868;4.382;2024-01-16T01:33:39;13.70;;;5.40;;
20069;SDS011;10195;50.868;4.382;2024-01-16T01:36:05;13.10;;;4.73;;
20069;SDS011;10195;50.868;4.382;2024-01-16T01:38:31;14.63;;;5.17;;
20069;SDS011;10195;50.868;4.382;2024-01-16T01:40:56;11.93;;;4.63;;
20069;SDS011;10195;50.868;4.382;2024-01-16T01:43:23;9.13;;;4.83;;
20069;SDS011;10195;50.868;4.382;2024-01-16T01:46:11;21.17;;;6.33;;
20069;SDS011;10195;50.868;4.382;2024-01-16T01:48:42;13.60;;;5.13;;
20069;SDS011;10195;50.868;4.382;2024-01-16T01:51:11;16.67;;;5.70;;
20069;SDS011;10195;50.868;4.382;2024-01-16T01:53:39;14.63;;;5.37;;
20069;SDS011;10195;50.868;4.382;2024-01-16T01:56:08;14.10;;;5.43;;
20069;SDS011;10195;50.868;4.382;2024-01-16T01:58:36;15.97;;;5.43;;
20069;SDS011;10195;50.868;4.382;2024-01-16T02:01:03;11.23;;;5.27;;
20069;SDS011;10195;50.868;4.382;2024-01-16T02:03:35;14.27;;;5.60;;
20069;SDS011;10195;50.868;4.382;2024-01-16T02:06:06;17.80;;;5.70;;
20069;SDS011;10195;50.868;4.382;2024-01-16T02:08:32;13.43;;;5.27;;
20069;SDS011;10195;50.868;4.382;2024-01-16T02:10:58;11.90;;;4.87;;
20069;SDS011;10195;50.868;4.382;2024-01-16T02:13:24;11.13;;;5.00;;
20069;SDS011;10195;50.868;4.382;2024-01-16T02:15:50;17.67;;;4.90;;
20069;SDS011;10195;50.868;4.382;2024-01-16T02:18:16;10.87;;;4.70;;
20069;SDS011;10195;50.868;4.382;2024-01-16T02:20:43;11.63;;;5.37;;
20069;SDS011;10195;50.868;4.382;2024-01-16T02:23:09;9.07;;;3.80;;
20069;SDS011;10195;50.868;4.382;2024-01-16T02:25:37;9.13;;;4.13;;
20069;SDS011;10195;50.868;4.382;2024-01-16T02:28:04;13.20;;;5.03;;
20069;SDS011;10195;50.868;4.382;2024-01-16T02:30:30;11.20;;;4.83;;
20069;SDS011;10195;50.868;4.382;2024-01-16T02:32:56;13.80;;;5.47;;
20069;SDS011;10195;50.868;4.382;2024-01-16T02:35:21;19.43;;;4.97;;
20069;SDS011;10195;50.868;4.382;2024-01-16T02:37:47;12.67;;;4.37;;
20069;SDS011;10195;50.868;4.382;2024-01-16T02:40:13;13.60;;;5.07;;
20069;SDS011;10195;50.868;4.382;2024-01-16T02:42:38;16.23;;;5.00;;
20069;SDS011;10195;50.868;4.382;2024-01-16T02:45:05;7.70;;;4.43;;
20069;SDS011;10195;50.868;4.382;2024-01-16T02:47:31;13.17;;;4.37;;
20069;SDS011;10195;50.868;4.382;2024-01-16T02:49:57;15.33;;;5.03;;
20069;SDS011;10195;50.868;4.382;2024-01-16T02:52:25;10.97;;;4.67;;
20069;SDS011;10195;50.868;4.382;2024-01-16T02:54:51;14.17;;;4.97;;
20069;SDS011;10195;50.868;4.382;2024-01-16T02:57:17;15.43;;;4.73;;
20069;SDS011;10195;50.868;4.382;2024-01-16T02:59:45;10.80;;;4.60;;
20069;SDS011;10195;50.868;4.382;2024-01-16T03:02:11;18.47;;;4.60;;
20069;SDS011;10195;50.868;4.382;2024-01-16T03:04:38;18.30;;;5.63;;
20069;SDS011;10195;50.868;4.382;2024-01-16T03:07:04;14.47;;;4.73;;
20069;SDS011;10195;50.868;4.382;2024-01-16T03:09:30;12.93;;;4.47;;
20069;SDS011;10195;50.868;4.382;2024-01-16T03:11:56;13.13;;;4.93;;
20069;SDS011;10195;50.868;4.382;2024-01-16T03:14:22;9.60;;;4.20;;
20069;SDS011;10195;50.868;4.382;2024-01-16T03:16:48;15.27;;;4.93;;
20069;SDS011;10195;50.868;4.382;2024-01-16T03:19:14;12.97;;;4.87;;
20069;SDS011;10195;50.868;4.382;2024-01-16T03:21:40;14.90;;;5.07;;
20069;SDS011;10195;50.868;4.382;2024-01-16T03:24:06;13.03;;;4.50;;
20069;SDS011;10195;50.868;4.382;2024-01-16T03:26:32;17.37;;;5.00;;
20069;SDS011;10195;50.868;4.382;2024-01-16T03:28:58;23.97;;;5.50;;
20069;SDS011;10195;50.868;4.382;2024-01-16T03:31:24;11.97;;;4.67;;
20069;SDS011;10195;50.868;4.382;2024-01-16T03:33:50;8.73;;;4.70;;
20069;SDS011;10195;50.868;4.382;2024-01-16T03:36:15;16.67;;;5.77;;
20069;SDS011;10195;50.868;4.382;2024-01-16T03:38:42;16.17;;;5.40;;
20069;SDS011;10195;50.868;4.382;2024-01-16T03:41:08;16.37;;;5.37;;
20069;SDS011;10195;50.868;4.382;2024-01-16T03:43:36;11.73;;;4.83;;
20069;SDS011;10195;50.868;4.382;2024-01-16T03:46:02;13.00;;;5.00;;
20069;SDS011;10195;50.868;4.382;2024-01-16T03:48:28;15.87;;;5.57;;
20069;SDS011;10195;50.868;4.382;2024-01-16T03:50:54;19.47;;;6.20;;
20069;SDS011;10195;50.868;4.382;2024-01-16T03:53:21;17.60;;;4.30;;
20069;SDS011;10195;50.868;4.382;2024-01-16T03:55:47;15.00;;;4.50;;
20069;SDS011;10195;50.868;4.382;2024-01-16T03:58:12;16.07;;;4.27;;
20069;SDS011;10195;50.868;4.382;2024-01-16T04:00:38;9.97;;;4.07;;
20069;SDS011;10195;50.868;4.382;2024-01-16T04:03:04;20.27;;;4.40;;
20069;SDS011;10195;50.868;4.382;2024-01-16T04:05:30;15.40;;;4.50;;
20069;SDS011;10195;50.868;4.382;2024-01-16T04:07:59;14.10;;;3.67;;
20069;SDS011;10195;50.868;4.382;2024-01-16T04:10:25;21.47;;;4.97;;
20069;SDS011;10195;50.868;4.382;2024-01-16T04:12:53;14.67;;;4.57;;
20069;SDS011;10195;50.868;4.382;2024-01-16T04:15:19;14.90;;;4.70;;
20069;SDS011;10195;50.868;4.382;2024-01-16T04:17:44;9.00;;;4.17;;
20069;SDS011;10195;50.868;4.382;2024-01-16T04:20:10;11.60;;;4.80;;
20069;SDS011;10195;50.868;4.382;2024-01-16T04:22:36;11.17;;;4.30;;
20069;SDS011;10195;50.868;4.382;2024-01-16T04:25:02;11.70;;;4.90;;
20069;SDS011;10195;50.868;4.382;2024-01-16T04:27:30;17.60;;;4.60;;
20069;SDS011;10195;50.868;4.382;2024-01-16T04:29:56;16.10;;;5.00;;
20069;SDS011;10195;50.868;4.382;2024-01-16T04:32:22;16.20;;;4.70;;
20069;SDS011;10195;50.868;4.382;2024-01-16T04:34:48;12.43;;;2.80;;
20069;SDS011;10195;50.868;4.382;2024-01-16T04:37:13;12.60;;;4.63;;
20069;SDS011;10195;50.868;4.382;2024-01-16T04:39:39;18.70;;;5.40;;
20069;SDS011;10195;50.868;4.382;2024-01-16T04:42:05;12.33;;;4.87;;
20069;SDS011;10195;50.868;4.382;2024-01-16T04:44:30;12.20;;;5.30;;
20069;SDS011;10195;50.868;4.382;2024-01-16T04:46:56;10.40;;;5.43;;
20069;SDS011;10195;50.868;4.382;2024-01-16T04:49:22;14.30;;;5.43;;
20069;SDS011;10195;50.868;4.382;2024-01-16T04:51:48;9.37;;;4.90;;
20069;SDS011;10195;50.868;4.382;2024-01-16T04:54:17;14.23;;;5.33;;
20069;SDS011;10195;50.868;4.382;2024-01-16T04:56:42;6.37;;;3.27;;
20069;SDS011;10195;50.868;4.382;2024-01-16T04:59:08;17.77;;;5.37;;
20069;SDS011;10195;50.868;4.382;2024-01-16T05:01:36;12.80;;;6.10;;
20069;SDS011;10195;50.868;4.382;2024-01-16T05:04:02;13.47;;;5.10;;
20069;SDS011;10195;50.868;4.382;2024-01-16T05:06:28;17.93;;;5.50;;
20069;SDS011;10195;50.868;4.382;2024-01-16T05:08:55;11.33;;;4.03;;
20069;SDS011;10195;50.868;4.382;2024-01-16T05:11:20;10.50;;;4.40;;
20069;SDS011;10195;50.868;4.382;2024-01-16T05:13:46;16.30;;;5.73;;
20069;SDS011;10195;50.868;4.382;2024-01-16T05:16:12;16.83;;;5.33;;
20069;SDS011;10195;50.868;4.382;2024-01-16T05:18:41;10.97;;;5.37;;
20069;SDS011;10195;50.868;4.382;2024-01-16T05:21:07;22.43;;;5.47;;
20069;SDS011;10195;50.868;4.382;2024-01-16T05:23:32;15.13;;;4.93;;
20069;SDS011;10195;50.868;4.382;2024-01-16T05:25:58;11.60;;;4.90;;
20069;SDS011;10195;50.868;4.382;2024-01-16T05:28:24;9.77;;;4.77;;
20069;SDS011;10195;50.868;4.382;2024-01-16T05:30:49;13.50;;;5.50;;
20069;SDS011;10195;50.868;4.382;2024-01-16T05:33:15;18.47;;;5.83;;
20069;SDS011;10195;50.868;4.382;2024-01-16T05:35:41;12.90;;;5.00;;
20069;SDS011;10195;50.868;4.382;2024-01-16T05:38:06;19.67;;;5.67;;
20069;SDS011;10195;50.868;4.382;2024-01-16T05:40:32;12.00;;;5.73;;
20069;SDS011;10195;50.868;4.382;2024-01-16T05:42:58;16.33;;;5.03;;
20069;SDS011;10195;50.868;4.382;2024-01-16T05:45:24;11.63;;;5.50;;
20069;SDS011;10195;50.868;4.382;2024-01-16T05:47:49;14.97;;;5.47;;
20069;SDS011;10195;50.868;4.382;2024-01-16T05:50:15;8.90;;;4.47;;
20069;SDS011;10195;50.868;4.382;2024-01-16T05:52:43;13.07;;;5.33;;
20069;SDS011;10195;50.868;4.382;2024-01-16T05:55:09;13.13;;;5.50;;
20069;SDS011;10195;50.868;4.382;2024-01-16T05:57:36;9.93;;;5.03;;
20069;SDS011;10195;50.868;4.382;2024-01-16T06:00:03;11.97;;;5.27;;
20069;SDS011;10195;50.868;4.382;2024-01-16T06:02:30;17.13;;;5.50;;
20069;SDS011;10195;50.868;4.382;2024-01-16T06:04:56;11.60;;;5.57;;
20069;SDS011;10195;50.868;4.382;2024-01-16T06:07:22;15.13;;;5.30;;
20069;SDS011;10195;50.868;4.382;2024-01-16T06:09:48;12.93;;;5.33;;
20069;SDS011;10195;50.868;4.382;2024-01-16T06:12:14;17.20;;;6.10;;
20069;SDS011;10195;50.868;4.382;2024-01-16T06:14:39;15.23;;;5.40;;
20069;SDS011;10195;50.868;4.382;2024-01-16T06:17:05;13.57;;;5.23;;
20069;SDS011;10195;50.868;4.382;2024-01-16T06:19:31;10.53;;;4.83;;
20069;SDS011;10195;50.868;4.382;2024-01-16T06:21:58;11.53;;;4.60;;
20069;SDS011;10195;50.868;4.382;2024-01-16T06:24:24;9.97;;;4.93;;
20069;SDS011;10195;50.868;4.382;2024-01-16T06:26:50;8.90;;;4.63;;
20069;SDS011;10195;50.868;4.382;2024-01-16T06:29:16;19.13;;;5.93;;
20069;SDS011;10195;50.868;4.382;2024-01-16T06:31:42;15.97;;;5.60;;
20069;SDS011;10195;50.868;4.382;2024-01-16T06:34:08;14.70;;;5.73;;
20069;SDS011;10195;50.868;4.382;2024-01-16T06:36:33;15.63;;;6.17;;
20069;SDS011;10195;50.868;4.382;2024-01-16T06:38:59;11.67;;;5.20;;
20069;SDS011;10195;50.868;4.382;2024-01-16T06:41:25;13.73;;;5.10;;
20069;SDS011;10195;50.868;4.382;2024-01-16T06:43:51;15.97;;;6.07;;
20069;SDS011;10195;50.868;4.382;2024-01-16T06:46:16;16.63;;;4.90;;
20069;SDS011;10195;50.868;4.382;2024-01-16T06:48:42;18.37;;;6.27;;
20069;SDS011;10195;50.868;4.382;2024-01-16T06:51:08;14.03;;;4.50;;
20069;SDS011;10195;50.868;4.382;2024-01-16T06:53:35;13.77;;;5.07;;
20069;SDS011;10195;50.868;4.382;2024-01-16T06:56:01;14.47;;;5.93;;
20069;SDS011;10195;50.868;4.382;2024-01-16T06:58:28;16.97;;;5.93;;
20069;SDS011;10195;50.868;4.382;2024-01-16T07:00:53;12.10;;;4.73;;
20069;SDS011;10195;50.868;4.382;2024-01-16T07:03:20;13.20;;;5.87;;
20069;SDS011;10195;50.868;4.382;2024-01-16T07:05:45;12.73;;;5.00;;
20069;SDS011;10195;50.868;4.382;2024-01-16T07:08:11;13.27;;;5.00;;
20069;SDS011;10195;50.868;4.382;2024-01-16T07:10:37;11.57;;;5.30;;
20069;SDS011;10195;50.868;4.382;2024-01-16T07:13:03;15.80;;;5.50;;
20069;SDS011;10195;50.868;4.382;2024-01-16T07:15:29;14.00;;;5.43;;
20069;SDS011;10195;50.868;4.382;2024-01-16T07:17:54;8.80;;;4.03;;
20069;SDS011;10195;50.868;4.382;2024-01-16T07:20:20;12.07;;;5.20;;
20069;SDS011;10195;50.868;4.382;2024-01-16T07:22:46;11.30;;;4.83;;
20069;SDS011;10195;50.868;4.382;2024-01-16T07:25:11;17.83;;;6.07;;
20069;SDS011;10195;50.868;4.382;2024-01-16T07:27:37;15.70;;;5.73;;
20069;SDS011;10195;50.868;4.382;2024-01-16T07:30:06;14.80;;;5.00;;
20069;SDS011;10195;50.868;4.382;2024-01-16T07:32:32;18.93;;;4.97;;
20069;SDS011;10195;50.868;4.382;2024-01-16T07:34:59;18.97;;;4.50;;
20069;SDS011;10195;50.868;4.382;2024-01-16T07:37:24;6.53;;;3.30;;
20069;SDS011;10195;50.868;4.382;2024-01-16T07:39:50;13.00;;;4.97;;
20069;SDS011;10195;50.868;4.382;2024-01-16T07:42:16;9.33;;;3.73;;
20069;SDS011;10195;50.868;4.382;2024-01-16T07:44:42;19.27;;;5.47;;
20069;SDS011;10195;50.868;4.382;2024-01-16T07:47:08;16.33;;;5.67;;
20069;SDS011;10195;50.868;4.382;2024-01-16T07:49:34;18.57;;;5.23;;
20069;SDS011;10195;50.868;4.382;2024-01-16T07:52:00;12.40;;;5.03;;
20069;SDS011;10195;50.868;4.382;2024-01-16T07:54:25;16.20;;;4.70;;
20069;SDS011;10195;50.868;4.382;2024-01-16T07:56:51;9.33;;;5.10;;
20069;SDS011;10195;50.868;4.382;2024-01-16T07:59:17;18.90;;;4.70;;
20069;SDS011;10195;50.868;4.382;2024-01-16T08:01:43;15.83;;;5.10;;
20069;SDS011;10195;50.868;4.382;2024-01-16T08:04:09;11.47;;;4.60;;
20069;SDS011;10195;50.868;4.382;2024-01-16T08:06:35;24.33;;;4.83;;
20069;SDS011;10195;50.868;4.382;2024-01-16T08:09:00;13.63;;;4.90;;
20069;SDS011;10195;50.868;4.382;2024-01-16T08:11:26;21.17;;;5.17;;
20069;SDS011;10195;50.868;4.382;2024-01-16T08:13:52;22.37;;;4.70;;
20069;SDS011;10195;50.868;4.382;2024-01-16T08:16:18;13.20;;;4.93;;
20069;SDS011;10195;50.868;4.382;2024-01-16T08:18:44;14.13;;;4.33;;
20069;SDS011;10195;50.868;4.382;2024-01-16T08:21:09;15.53;;;5.13;;
20069;SDS011;10195;50.868;4.382;2024-01-16T08:23:35;15.63;;;5.90;;
20069;SDS011;10195;50.868;4.382;2024-01-16T08:26:01;14.17;;;5.20;;
20069;SDS011;10195;50.868;4.382;2024-01-16T08:28:27;18.17;;;5.93;;
20069;SDS011;10195;50.868;4.382;2024-01-16T08:30:52;14.90;;;5.33;;
20069;SDS011;10195;50.868;4.382;2024-01-16T08:33:18;12.33;;;4.40;;
20069;SDS011;10195;50.868;4.382;2024-01-16T08:35:44;9.37;;;4.47;;
20069;SDS011;10195;50.868;4.382;2024-01-16T08:38:10;10.57;;;4.50;;
20069;SDS011;10195;50.868;4.382;2024-01-16T08:40:35;15.87;;;4.50;;
20069;SDS011;10195;50.868;4.382;2024-01-16T08:43:01;14.53;;;4.67;;
20069;SDS011;10195;50.868;4.382;2024-01-16T08:45:28;18.17;;;4.53;;
20069;SDS011;10195;50.868;4.382;2024-01-16T08:47:54;13.87;;;4.17;;
20069;SDS011;10195;50.868;4.382;2024-01-16T08:50:20;9.60;;;4.00;;
20069;SDS011;10195;50.868;4.382;2024-01-16T08:52:46;19.00;;;4.53;;
20069;SDS011;10195;50.868;4.382;2024-01-16T08:55:11;9.87;;;4.00;;
20069;SDS011;10195;50.868;4.382;2024-01-16T08:57:37;10.67;;;4.80;;
20069;SDS011;10195;50.868;4.382;2024-01-16T09:00:06;15.97;;;3.80;;
20069;SDS011;10195;50.868;4.382;2024-01-16T09:02:34;10.20;;;3.60;;
20069;SDS011;10195;50.868;4.382;2024-01-16T09:05:02;8.67;;;3.17;;
20069;SDS011;10195;50.868;4.382;2024-01-16T09:07:28;8.67;;;4.10;;
20069;SDS011;10195;50.868;4.382;2024-01-16T09:09:54;25.70;;;4.47;;
20069;SDS011;10195;50.868;4.382;2024-01-16T09:12:20;9.07;;;3.47;;
20069;SDS011;10195;50.868;4.382;2024-01-16T09:14:45;7.10;;;3.50;;
20069;SDS011;10195;50.868;4.382;2024-01-16T09:17:11;16.50;;;4.20;;
20069;SDS011;10195;50.868;4.382;2024-01-16T09:19:37;9.10;;;4.00;;
20069;SDS011;10195;50.868;4.382;2024-01-16T09:22:02;11.60;;;3.97;;
20069;SDS011;10195;50.868;4.382;2024-01-16T09:24:28;9.30;;;4.40;;
20069;SDS011;10195;50.868;4.382;2024-01-16T09:26:54;9.93;;;3.97;;
20069;SDS011;10195;50.868;4.382;2024-01-16T09:29:20;8.73;;;3.60;;
20069;SDS011;10195;50.868;4.382;2024-01-16T09:31:47;10.37;;;5.13;;
20069;SDS011;10195;50.868;4.382;2024-01-16T09:34:13;5.97;;;3.17;;
20069;SDS011;10195;50.868;4.382;2024-01-16T09:36:39;9.90;;;4.00;;
20069;SDS011;10195;50.868;4.382;2024-01-16T09:39:05;14.10;;;4.40;;
20069;SDS011;10195;50.868;4.382;2024-01-16T09:41:36;18.63;;;3.90;;
20069;SDS011;10195;50.868;4.382;2024-01-16T09:44:03;11.30;;;3.70;;
20069;SDS011;10195;50.868;4.382;2024-01-16T09:46:29;15.80;;;3.97;;
20069;SDS011;10195;50.868;4.382;2024-01-16T09:48:56;16.17;;;3.77;;
20069;SDS011;10195;50.868;4.382;2024-01-16T09:51:24;9.63;;;3.90;;
20069;SDS011;10195;50.868;4.382;2024-01-16T09:53:51;11.17;;;3.80;;
20069;SDS011;10195;50.868;4.382;2024-01-16T09:56:20;8.50;;;3.40;;
20069;SDS011;10195;50.868;4.382;2024-01-16T09:58:48;11.93;;;4.23;;
20069;SDS011;10195;50.868;4.382;2024-01-16T10:01:17;12.80;;;4.93;;
20069;SDS011;10195;50.868;4.382;2024-01-16T10:03:45;6.53;;;3.03;;
20069;SDS011;10195;50.868;4.382;2024-01-16T10:06:10;7.93;;;3.40;;
20069;SDS011;10195;50.868;4.382;2024-01-16T10:08:38;11.60;;;4.03;;
20069;SDS011;10195;50.868;4.382;2024-01-16T10:11:05;13.03;;;3.60;;
20069;SDS011;10195;50.868;4.382;2024-01-16T10:13:31;12.40;;;4.07;;
20069;SDS011;10195;50.868;4.382;2024-01-16T10:15:58;9.57;;;4.03;;
20069;SDS011;10195;50.868;4.382;2024-01-16T10:20:50;9.20;;;3.93;;
20069;SDS011;10195;50.868;4.382;2024-01-16T10:23:24;9.57;;;4.23;;
20069;SDS011;10195;50.868;4.382;2024-01-16T10:28:37;10.97;;;4.37;;
20069;SDS011;10195;50.868;4.382;2024-01-16T10:31:05;9.20;;;3.73;;
20069;SDS011;10195;50.868;4.382;2024-01-16T10:33:35;15.47;;;4.17;;
20069;SDS011;10195;50.868;4.382;2024-01-16T10:36:14;14.57;;;3.97;;
20069;SDS011;10195;50.868;4.382;2024-01-16T10:38:46;10.33;;;4.23;;
20069;SDS011;10195;50.868;4.382;2024-01-16T10:41:12;9.23;;;4.63;;
20069;SDS011;10195;50.868;4.382;2024-01-16T10:44:02;7.83;;;3.27;;
20069;SDS011;10195;50.868;4.382;2024-01-16T10:46:32;11.80;;;4.27;;
20069;SDS011;10195;50.868;4.382;2024-01-16T10:48:58;15.57;;;4.37;;
20069;SDS011;10195;50.868;4.382;2024-01-16T10:51:28;16.83;;;4.00;;
20069;SDS011;10195;50.868;4.382;2024-01-16T10:54:04;8.33;;;3.57;;
20069;SDS011;10195;50.868;4.382;2024-01-16T10:56:35;10.80;;;4.80;;
20069;SDS011;10195;50.868;4.382;2024-01-16T11:01:47;7.70;;;3.47;;
20069;SDS011;10195;50.868;4.382;2024-01-16T11:04:16;7.20;;;3.23;;
20069;SDS011;10195;50.868;4.382;2024-01-16T11:06:44;7.43;;;3.20;;
20069;SDS011;10195;50.868;4.382;2024-01-16T11:09:12;10.43;;;3.67;;
20069;SDS011;10195;50.868;4.382;2024-01-16T11:11:42;6.47;;;3.30;;
20069;SDS011;10195;50.868;4.382;2024-01-16T11:14:10;8.83;;;3.70;;
20069;SDS011;10195;50.868;4.382;2024-01-16T11:16:39;11.53;;;3.53;;
20069;SDS011;10195;50.868;4.382;2024-01-16T11:19:10;8.67;;;3.57;;
20069;SDS011;10195;50.868;4.382;2024-01-16T11:21:36;11.03;;;4.30;;
20069;SDS011;10195;50.868;4.382;2024-01-16T11:24:03;12.47;;;4.30;;
20069;SDS011;10195;50.868;4.382;2024-01-16T11:26:33;14.23;;;3.83;;
20069;SDS011;10195;50.868;4.382;2024-01-16T11:31:51;11.93;;;4.70;;
20069;SDS011;10195;50.868;4.382;2024-01-16T11:34:52;11.93;;;4.60;;
20069;SDS011;10195;50.868;4.382;2024-01-16T11:37:07;7.27;;;3.77;;
20069;SDS011;10195;50.868;4.382;2024-01-16T11:39:34;9.77;;;3.27;;
20069;SDS011;10195;50.868;4.382;2024-01-16T11:42:00;14.47;;;3.80;;
20069;SDS011;10195;50.868;4.382;2024-01-16T11:44:39;5.97;;;2.23;;
20069;SDS011;10195;50.868;4.382;2024-01-16T11:47:16;8.40;;;3.80;;
20069;SDS011;10195;50.868;4.382;2024-01-16T11:49:43;9.30;;;3.73;;
20069;SDS011;10195;50.868;4.382;2024-01-16T11:52:09;9.87;;;3.90;;
20069;SDS011;10195;50.868;4.382;2024-01-16T11:54:37;10.03;;;4.03;;
20069;SDS011;10195;50.868;4.382;2024-01-16T11:57:28;7.70;;;3.70;;
20069;SDS011;10195;50.868;4.382;2024-01-16T12:00:19;11.30;;;3.97;;
20069;SDS011;10195;50.868;4.382;2024-01-16T12:02:50;12.13;;;3.67;;
20069;SDS011;10195;50.868;4.382;2024-01-16T12:05:18;7.77;;;3.50;;
20069;SDS011;10195;50.868;4.382;2024-01-16T12:07:51;11.80;;;4.33;;
20069;SDS011;10195;50.868;4.382;2024-01-16T12:10:19;11.00;;;3.97;;
20069;SDS011;10195;50.868;4.382;2024-01-16T12:12:47;11.53;;;4.10;;
20069;SDS011;10195;50.868;4.382;2024-01-16T12:15:14;13.47;;;4.83;;
20069;SDS011;10195;50.868;4.382;2024-01-16T12:17:57;10.17;;;4.83;;
20069;SDS011;10195;50.868;4.382;2024-01-16T12:20:25;6.30;;;2.60;;
20069;SDS011;10195;50.868;4.382;2024-01-16T12:23:00;16.70;;;3.70;;
20069;SDS011;10195;50.868;4.382;2024-01-16T12:25:28;7.23;;;3.40;;
20069;SDS011;10195;50.868;4.382;2024-01-16T12:27:59;13.53;;;4.27;;
20069;SDS011;10195;50.868;4.382;2024-01-16T12:30:26;8.20;;;4.10;;
20069;SDS011;10195;50.868;4.382;2024-01-16T12:33:03;13.47;;;4.23;;
20069;SDS011;10195;50.868;4.382;2024-01-16T12:35:33;9.93;;;3.90;;
20069;SDS011;10195;50.868;4.382;2024-01-16T12:38:03;14.97;;;3.90;;
20069;SDS011;10195;50.868;4.382;2024-01-16T12:40:56;6.60;;;3.20;;
20069;SDS011;10195;50.868;4.382;2024-01-16T12:43:23;10.17;;;3.90;;
20069;SDS011;10195;50.868;4.382;2024-01-16T12:45:57;10.80;;;3.40;;
20069;SDS011;10195;50.868;4.382;2024-01-16T12:48:24;22.43;;;4.37;;
20069;SDS011;10195;50.868;4.382;2024-01-16T12:50:51;8.13;;;3.70;;
20069;SDS011;10195;50.868;4.382;2024-01-16T12:53:27;11.63;;;3.47;;
20069;SDS011;10195;50.868;4.382;2024-01-16T12:55:57;12.30;;;3.83;;
20069;SDS011;10195;50.868;4.382;2024-01-16T12:58:34;8.07;;;2.67;;
20069;SDS011;10195;50.868;4.382;2024-01-16T13:03:53;8.20;;;3.37;;
20069;SDS011;10195;50.868;4.382;2024-01-16T13:06:20;10.03;;;2.80;;
20069;SDS011;10195;50.868;4.382;2024-01-16T13:08:48;10.53;;;3.70;;
20069;SDS011;10195;50.868;4.382;2024-01-16T13:11:14;14.60;;;3.57;;
20069;SDS011;10195;50.868;4.382;2024-01-16T13:13:47;14.67;;;3.80;;
20069;SDS011;10195;50.868;4.382;2024-01-16T13:16:13;11.53;;;3.97;;
20069;SDS011;10195;50.868;4.382;2024-01-16T13:18:39;12.47;;;4.53;;
20069;SDS011;10195;50.868;4.382;2024-01-16T13:21:05;10.30;;;3.83;;
20069;SDS011;10195;50.868;4.382;2024-01-16T13:23:31;9.63;;;3.70;;
20069;SDS011;10195;50.868;4.382;2024-01-16T13:25:57;5.60;;;2.83;;
20069;SDS011;10195;50.868;4.382;2024-01-16T13:28:25;10.00;;;3.80;;
20069;SDS011;10195;50.868;4.382;2024-01-16T13:30:52;7.77;;;3.57;;
20069;SDS011;10195;50.868;4.382;2024-01-16T13:33:18;12.77;;;3.97;;
20069;SDS011;10195;50.868;4.382;2024-01-16T13:35:44;10.30;;;4.23;;
20069;SDS011;10195;50.868;4.382;2024-01-16T13:38:13;11.40;;;3.93;;
20069;SDS011;10195;50.868;4.382;2024-01-16T13:40:43;8.47;;;3.03;;
20069;SDS011;10195;50.868;4.382;2024-01-16T13:43:08;2.30;;;1.80;;
20069;SDS011;10195;50.868;4.382;2024-01-16T13:45:34;7.63;;;3.40;;
20069;SDS011;10195;50.868;4.382;2024-01-16T13:48:00;9.97;;;3.30;;
20069;SDS011;10195;50.868;4.382;2024-01-16T13:50:27;10.97;;;3.70;;
20069;SDS011;10195;50.868;4.382;2024-01-16T13:52:53;10.43;;;3.50;;
20069;SDS011;10195;50.868;4.382;2024-01-16T13:55:20;8.23;;;3.40;;
20069;SDS011;10195;50.868;4.382;2024-01-16T13:57:46;9.23;;;3.70;;
20069;SDS011;10195;50.868;4.382;2024-01-16T14:00:12;14.13;;;3.40;;
20069;SDS011;10195;50.868;4.382;2024-01-16T14:02:44;7.63;;;3.33;;
20069;SDS011;10195;50.868;4.382;2024-01-16T14:05:19;8.40;;;3.20;;
20069;SDS011;10195;50.868;4.382;2024-01-16T14:07:45;13.93;;;3.33;;
20069;SDS011;10195;50.868;4.382;2024-01-16T14:10:13;7.53;;;3.17;;
20069;SDS011;10195;50.868;4.382;2024-01-16T14:12:40;12.10;;;3.80;;
20069;SDS011;10195;50.868;4.382;2024-01-16T14:15:08;9.77;;;3.10;;
20069;SDS011;10195;50.868;4.382;2024-01-16T14:17:41;10.83;;;3.50;;
20069;SDS011;10195;50.868;4.382;2024-01-16T14:20:11;11.50;;;3.30;;
20069;SDS011;10195;50.868;4.382;2024-01-16T14:22:37;5.67;;;2.83;;
20069;SDS011;10195;50.868;4.382;2024-01-16T14:25:05;9.83;;;3.33;;
20069;SDS011;10195;50.868;4.382;2024-01-16T14:27:40;7.33;;;3.80;;
20069;SDS011;10195;50.868;4.382;2024-01-16T14:30:07;11.03;;;3.60;;
20069;SDS011;10195;50.868;4.382;2024-01-16T14:32:39;10.53;;;3.13;;
20069;SDS011;10195;50.868;4.382;2024-01-16T14:35:09;14.13;;;3.13;;
20069;SDS011;10195;50.868;4.382;2024-01-16T14:37:36;10.73;;;3.00;;
20069;SDS011;10195;50.868;4.382;2024-01-16T14:40:03;10.17;;;3.00;;
20069;SDS011;10195;50.868;4.382;2024-01-16T14:42:45;8.60;;;2.97;;
20069;SDS011;10195;50.868;4.382;2024-01-16T14:45:13;10.73;;;3.70;;
20069;SDS011;10195;50.868;4.382;2024-01-16T14:47:43;8.93;;;3.60;;
20069;SDS011;10195;50.868;4.382;2024-01-16T14:50:10;11.73;;;2.90;;
20069;SDS011;10195;50.868;4.382;2024-01-16T14:52:37;11.93;;;3.50;;